Mountain Home, Texas
Current Conditions -  °F | °C
As of 4:55 PM on Thursday 23 Oct 2014 (Local Time) from KERV Reporting Station
Scattered Clouds Scattered Clouds  
Wind Chill: 76°   Ceiling: Unl
Heat Index: 78°   Visibility: 10mi
Dew Point: 62°   Wind: 3mph
Humidity: 61%   Direction: 130°SE
Pressure: 30.1"   Gusts: NA
Location:  30.17°N, 99.38°W
Report Text: KERV 232155Z AUTO 13003KT 10SM SCT065 25/17 A3010 RMK AO2 T02470166
Loading
Personal Weather Stations






























Interactive Weather Map
Tropical Storm Tracking
New forecast layout! Learn more

10-Day Weather Forecast

Advertisements
Track Severe Weather on mobile